sensor_id;sensor_type;location;lat;lon;timestamp;P1;durP1;ratioP1;P2;durP2;ratioP2
39276;SDS011;63149;48.086;-1.606;2023-01-23T06:02:51;52.65;;;24.88;;
39276;SDS011;63149;48.086;-1.606;2023-01-23T06:05:18;54.05;;;24.92;;
39276;SDS011;63149;48.086;-1.606;2023-01-23T06:07:45;61.70;;;25.95;;
39276;SDS011;63149;48.086;-1.606;2023-01-23T06:10:12;56.53;;;26.00;;
39276;SDS011;63149;48.086;-1.606;2023-01-23T06:12:39;53.40;;;25.33;;
39276;SDS011;63149;48.086;-1.606;2023-01-23T06:15:06;55.22;;;26.25;;
39276;SDS011;63149;48.086;-1.606;2023-01-23T06:17:33;50.50;;;24.45;;
39276;SDS011;63149;48.086;-1.606;2023-01-23T06:20:02;48.03;;;23.60;;
39276;SDS011;63149;48.086;-1.606;2023-01-23T06:22:30;52.10;;;24.25;;
39276;SDS011;63149;48.086;-1.606;2023-01-23T06:24:57;48.33;;;23.80;;
39276;SDS011;63149;48.086;-1.606;2023-01-23T06:27:24;56.50;;;24.30;;
39276;SDS011;63149;48.086;-1.606;2023-01-23T06:29:50;57.28;;;25.63;;
39276;SDS011;63149;48.086;-1.606;2023-01-23T06:32:17;52.72;;;24.15;;
39276;SDS011;63149;48.086;-1.606;2023-01-23T06:34:44;53.90;;;24.15;;
39276;SDS011;63149;48.086;-1.606;2023-01-23T06:37:13;51.55;;;23.10;;
39276;SDS011;63149;48.086;-1.606;2023-01-23T06:39:40;48.03;;;23.63;;
39276;SDS011;63149;48.086;-1.606;2023-01-23T06:42:07;53.22;;;27.13;;
39276;SDS011;63149;48.086;-1.606;2023-01-23T06:44:34;53.38;;;26.92;;
39276;SDS011;63149;48.086;-1.606;2023-01-23T06:47:01;56.05;;;24.70;;
39276;SDS011;63149;48.086;-1.606;2023-01-23T06:49:28;50.88;;;23.88;;
39276;SDS011;63149;48.086;-1.606;2023-01-23T06:51:55;52.85;;;24.88;;
39276;SDS011;63149;48.086;-1.606;2023-01-23T06:54:23;48.70;;;24.92;;
39276;SDS011;63149;48.086;-1.606;2023-01-23T06:56:50;50.55;;;23.85;;
39276;SDS011;63149;48.086;-1.606;2023-01-23T06:59:17;43.45;;;23.33;;
39276;SDS011;63149;48.086;-1.606;2023-01-23T07:01:44;46.97;;;23.15;;
39276;SDS011;63149;48.086;-1.606;2023-01-23T07:04:11;46.38;;;22.38;;
39276;SDS011;63149;48.086;-1.606;2023-01-23T07:06:38;53.85;;;24.67;;
39276;SDS011;63149;48.086;-1.606;2023-01-23T07:09:05;46.17;;;22.75;;
39276;SDS011;63149;48.086;-1.606;2023-01-23T07:11:33;47.55;;;22.67;;
39276;SDS011;63149;48.086;-1.606;2023-01-23T07:14:01;41.60;;;22.45;;
39276;SDS011;63149;48.086;-1.606;2023-01-23T07:16:28;49.85;;;23.73;;
39276;SDS011;63149;48.086;-1.606;2023-01-23T07:18:55;46.58;;;23.70;;
39276;SDS011;63149;48.086;-1.606;2023-01-23T07:21:22;55.42;;;25.58;;
39276;SDS011;63149;48.086;-1.606;2023-01-23T07:23:50;55.38;;;24.85;;
39276;SDS011;63149;48.086;-1.606;2023-01-23T07:26:16;46.90;;;22.95;;
39276;SDS011;63149;48.086;-1.606;2023-01-23T07:28:45;55.38;;;25.13;;
39276;SDS011;63149;48.086;-1.606;2023-01-23T07:31:12;52.28;;;23.60;;
39276;SDS011;63149;48.086;-1.606;2023-01-23T07:33:39;46.83;;;23.77;;
39276;SDS011;63149;48.086;-1.606;2023-01-23T07:36:06;44.85;;;23.63;;
39276;SDS011;63149;48.086;-1.606;2023-01-23T07:38:33;44.13;;;22.85;;
39276;SDS011;63149;48.086;-1.606;2023-01-23T07:41:00;52.97;;;24.33;;
39276;SDS011;63149;48.086;-1.606;2023-01-23T07:43:27;55.72;;;25.08;;
39276;SDS011;63149;48.086;-1.606;2023-01-23T07:45:58;45.08;;;22.67;;
39276;SDS011;63149;48.086;-1.606;2023-01-23T07:48:25;48.03;;;22.98;;
39276;SDS011;63149;48.086;-1.606;2023-01-23T07:50:53;48.97;;;23.55;;
39276;SDS011;63149;48.086;-1.606;2023-01-23T07:53:20;54.72;;;24.38;;
39276;SDS011;63149;48.086;-1.606;2023-01-23T07:55:47;52.40;;;22.73;;
39276;SDS011;63149;48.086;-1.606;2023-01-23T07:58:14;43.75;;;22.55;;
39276;SDS011;63149;48.086;-1.606;2023-01-23T08:00:41;41.80;;;20.70;;
39276;SDS011;63149;48.086;-1.606;2023-01-23T08:03:09;45.88;;;21.13;;
39276;SDS011;63149;48.086;-1.606;2023-01-23T08:05:36;48.80;;;23.48;;
39276;SDS011;63149;48.086;-1.606;2023-01-23T08:08:03;55.95;;;24.40;;
39276;SDS011;63149;48.086;-1.606;2023-01-23T08:10:30;46.28;;;22.30;;
39276;SDS011;63149;48.086;-1.606;2023-01-23T08:12:57;55.95;;;24.42;;
39276;SDS011;63149;48.086;-1.606;2023-01-23T08:15:24;50.78;;;23.20;;
39276;SDS011;63149;48.086;-1.606;2023-01-23T08:17:52;48.95;;;23.38;;
39276;SDS011;63149;48.086;-1.606;2023-01-23T08:20:20;48.50;;;24.08;;
39276;SDS011;63149;48.086;-1.606;2023-01-23T08:22:47;49.00;;;23.50;;
39276;SDS011;63149;48.086;-1.606;2023-01-23T08:25:14;46.78;;;23.23;;
39276;SDS011;63149;48.086;-1.606;2023-01-23T08:27:41;47.35;;;25.15;;
39276;SDS011;63149;48.086;-1.606;2023-01-23T08:30:09;53.20;;;25.67;;
39276;SDS011;63149;48.086;-1.606;2023-01-23T08:32:36;53.45;;;25.95;;
39276;SDS011;63149;48.086;-1.606;2023-01-23T08:35:03;48.17;;;24.35;;
39276;SDS011;63149;48.086;-1.606;2023-01-23T08:37:32;52.72;;;25.10;;
39276;SDS011;63149;48.086;-1.606;2023-01-23T08:40:00;52.75;;;26.35;;
39276;SDS011;63149;48.086;-1.606;2023-01-23T08:42:27;54.58;;;24.48;;
39276;SDS011;63149;48.086;-1.606;2023-01-23T08:44:55;49.80;;;23.55;;
39276;SDS011;63149;48.086;-1.606;2023-01-23T08:47:22;47.47;;;22.83;;
39276;SDS011;63149;48.086;-1.606;2023-01-23T08:49:48;52.47;;;23.73;;
39276;SDS011;63149;48.086;-1.606;2023-01-23T08:52:15;51.45;;;23.33;;
39276;SDS011;63149;48.086;-1.606;2023-01-23T08:54:44;53.40;;;24.98;;
39276;SDS011;63149;48.086;-1.606;2023-01-23T08:57:11;48.17;;;24.17;;
39276;SDS011;63149;48.086;-1.606;2023-01-23T08:59:38;52.25;;;23.90;;
39276;SDS011;63149;48.086;-1.606;2023-01-23T09:02:08;47.38;;;23.02;;
39276;SDS011;63149;48.086;-1.606;2023-01-23T09:04:36;55.88;;;25.67;;
39276;SDS011;63149;48.086;-1.606;2023-01-23T09:07:03;49.53;;;25.23;;
39276;SDS011;63149;48.086;-1.606;2023-01-23T09:09:30;51.55;;;24.48;;
39276;SDS011;63149;48.086;-1.606;2023-01-23T09:11:58;55.13;;;25.50;;
39276;SDS011;63149;48.086;-1.606;2023-01-23T09:14:25;50.42;;;24.73;;
39276;SDS011;63149;48.086;-1.606;2023-01-23T09:16:52;50.00;;;24.38;;
39276;SDS011;63149;48.086;-1.606;2023-01-23T09:19:19;52.40;;;26.23;;
39276;SDS011;63149;48.086;-1.606;2023-01-23T09:21:46;48.03;;;23.38;;
39276;SDS011;63149;48.086;-1.606;2023-01-23T09:24:13;56.95;;;24.38;;
39276;SDS011;63149;48.086;-1.606;2023-01-23T09:26:41;48.33;;;22.90;;
39276;SDS011;63149;48.086;-1.606;2023-01-23T09:29:09;55.35;;;23.52;;
39276;SDS011;63149;48.086;-1.606;2023-01-23T09:31:36;50.28;;;22.17;;
39276;SDS011;63149;48.086;-1.606;2023-01-23T09:34:03;48.75;;;23.02;;
39276;SDS011;63149;48.086;-1.606;2023-01-23T09:36:31;48.35;;;23.45;;
39276;SDS011;63149;48.086;-1.606;2023-01-23T09:38:59;46.17;;;22.23;;
39276;SDS011;63149;48.086;-1.606;2023-01-23T09:41:27;44.85;;;22.42;;
39276;SDS011;63149;48.086;-1.606;2023-01-23T09:43:56;47.28;;;22.60;;
39276;SDS011;63149;48.086;-1.606;2023-01-23T09:46:28;42.67;;;21.40;;
39276;SDS011;63149;48.086;-1.606;2023-01-23T09:49:01;44.00;;;22.98;;
39276;SDS011;63149;48.086;-1.606;2023-01-23T09:54:06;42.25;;;20.17;;
39276;SDS011;63149;48.086;-1.606;2023-01-23T09:56:43;43.00;;;22.30;;
39276;SDS011;63149;48.086;-1.606;2023-01-23T09:59:13;42.92;;;21.75;;
39276;SDS011;63149;48.086;-1.606;2023-01-23T10:01:49;45.53;;;20.83;;
39276;SDS011;63149;48.086;-1.606;2023-01-23T10:04:17;43.00;;;20.00;;
39276;SDS011;63149;48.086;-1.606;2023-01-23T10:06:50;40.35;;;20.52;;
39276;SDS011;63149;48.086;-1.606;2023-01-23T10:09:53;42.17;;;20.98;;
39276;SDS011;63149;48.086;-1.606;2023-01-23T10:12:43;47.40;;;20.55;;
39276;SDS011;63149;48.086;-1.606;2023-01-23T10:15:21;52.75;;;22.60;;
39276;SDS011;63149;48.086;-1.606;2023-01-23T10:17:59;37.03;;;21.08;;
39276;SDS011;63149;48.086;-1.606;2023-01-23T10:20:42;43.45;;;22.15;;
39276;SDS011;63149;48.086;-1.606;2023-01-23T10:23:38;40.22;;;20.85;;
39276;SDS011;63149;48.086;-1.606;2023-01-23T10:26:12;39.50;;;21.20;;
39276;SDS011;63149;48.086;-1.606;2023-01-23T10:28:43;39.22;;;21.05;;
39276;SDS011;63149;48.086;-1.606;2023-01-23T10:31:19;43.05;;;20.45;;
39276;SDS011;63149;48.086;-1.606;2023-01-23T10:36:24;38.20;;;21.37;;
39276;SDS011;63149;48.086;-1.606;2023-01-23T10:38:56;31.25;;;19.25;;
39276;SDS011;63149;48.086;-1.606;2023-01-23T10:41:25;36.72;;;19.58;;
39276;SDS011;63149;48.086;-1.606;2023-01-23T10:43:53;33.45;;;18.48;;
39276;SDS011;63149;48.086;-1.606;2023-01-23T10:46:22;34.17;;;18.77;;
39276;SDS011;63149;48.086;-1.606;2023-01-23T10:48:57;33.83;;;18.95;;
39276;SDS011;63149;48.086;-1.606;2023-01-23T10:51:26;32.63;;;17.92;;
39276;SDS011;63149;48.086;-1.606;2023-01-23T10:54:01;34.65;;;19.48;;
39276;SDS011;63149;48.086;-1.606;2023-01-23T10:56:36;39.38;;;19.20;;
39276;SDS011;63149;48.086;-1.606;2023-01-23T10:59:12;35.25;;;18.60;;
39276;SDS011;63149;48.086;-1.606;2023-01-23T11:01:55;33.38;;;19.63;;
39276;SDS011;63149;48.086;-1.606;2023-01-23T11:04:27;38.10;;;19.30;;
39276;SDS011;63149;48.086;-1.606;2023-01-23T11:06:59;34.87;;;19.23;;
39276;SDS011;63149;48.086;-1.606;2023-01-23T11:09:28;36.50;;;18.52;;
39276;SDS011;63149;48.086;-1.606;2023-01-23T11:12:02;34.35;;;18.73;;
39276;SDS011;63149;48.086;-1.606;2023-01-23T11:14:31;35.53;;;19.90;;
39276;SDS011;63149;48.086;-1.606;2023-01-23T11:16:59;34.28;;;19.23;;
39276;SDS011;63149;48.086;-1.606;2023-01-23T11:19:30;35.70;;;19.88;;
39276;SDS011;63149;48.086;-1.606;2023-01-23T11:21:59;26.30;;;14.70;;
39276;SDS011;63149;48.086;-1.606;2023-01-23T11:24:31;32.17;;;18.38;;
39276;SDS011;63149;48.086;-1.606;2023-01-23T11:27:01;30.58;;;18.50;;
39276;SDS011;63149;48.086;-1.606;2023-01-23T11:29:30;29.40;;;17.45;;
39276;SDS011;63149;48.086;-1.606;2023-01-23T11:32:15;30.77;;;18.70;;
39276;SDS011;63149;48.086;-1.606;2023-01-23T11:34:45;25.25;;;16.17;;
39276;SDS011;63149;48.086;-1.606;2023-01-23T11:37:16;25.40;;;16.40;;
39276;SDS011;63149;48.086;-1.606;2023-01-23T11:39:47;25.30;;;15.93;;
39276;SDS011;63149;48.086;-1.606;2023-01-23T11:42:19;26.65;;;16.85;;
39276;SDS011;63149;48.086;-1.606;2023-01-23T11:44:46;26.17;;;16.35;;
39276;SDS011;63149;48.086;-1.606;2023-01-23T11:47:25;28.30;;;16.75;;
39276;SDS011;63149;48.086;-1.606;2023-01-23T11:50:14;28.88;;;16.88;;
39276;SDS011;63149;48.086;-1.606;2023-01-23T11:52:55;26.25;;;15.75;;
39276;SDS011;63149;48.086;-1.606;2023-01-23T11:55:33;22.77;;;14.55;;
39276;SDS011;63149;48.086;-1.606;2023-01-23T11:58:14;25.40;;;15.63;;
39276;SDS011;63149;48.086;-1.606;2023-01-23T12:01:01;28.02;;;15.52;;
39276;SDS011;63149;48.086;-1.606;2023-01-23T12:06:47;24.05;;;14.15;;
39276;SDS011;63149;48.086;-1.606;2023-01-23T12:09:22;25.52;;;14.15;;
39276;SDS011;63149;48.086;-1.606;2023-01-23T12:12:02;27.45;;;14.50;;
39276;SDS011;63149;48.086;-1.606;2023-01-23T12:14:38;21.45;;;13.40;;
39276;SDS011;63149;48.086;-1.606;2023-01-23T12:17:16;28.73;;;13.98;;
39276;SDS011;63149;48.086;-1.606;2023-01-23T12:19:54;22.08;;;13.80;;
39276;SDS011;63149;48.086;-1.606;2023-01-23T12:22:33;21.95;;;13.80;;
39276;SDS011;63149;48.086;-1.606;2023-01-23T12:25:10;24.17;;;13.65;;
39276;SDS011;63149;48.086;-1.606;2023-01-23T12:27:45;22.50;;;14.18;;
39276;SDS011;63149;48.086;-1.606;2023-01-23T12:30:26;26.52;;;15.32;;
39276;SDS011;63149;48.086;-1.606;2023-01-23T12:33:07;22.83;;;14.43;;
39276;SDS011;63149;48.086;-1.606;2023-01-23T12:35:55;21.63;;;13.18;;
39276;SDS011;63149;48.086;-1.606;2023-01-23T12:38:34;23.77;;;12.73;;
39276;SDS011;63149;48.086;-1.606;2023-01-23T12:41:10;24.83;;;14.80;;
39276;SDS011;63149;48.086;-1.606;2023-01-23T12:43:42;28.50;;;15.13;;
39276;SDS011;63149;48.086;-1.606;2023-01-23T12:46:17;30.23;;;15.80;;
39276;SDS011;63149;48.086;-1.606;2023-01-23T12:48:50;25.23;;;15.02;;
39276;SDS011;63149;48.086;-1.606;2023-01-23T12:51:21;24.30;;;14.88;;
39276;SDS011;63149;48.086;-1.606;2023-01-23T12:53:54;25.30;;;15.18;;
39276;SDS011;63149;48.086;-1.606;2023-01-23T12:56:24;24.27;;;13.73;;
39276;SDS011;63149;48.086;-1.606;2023-01-23T12:58:55;24.45;;;15.20;;
39276;SDS011;63149;48.086;-1.606;2023-01-23T13:01:38;25.70;;;14.55;;
39276;SDS011;63149;48.086;-1.606;2023-01-23T13:04:20;20.33;;;14.43;;
39276;SDS011;63149;48.086;-1.606;2023-01-23T13:07:03;25.73;;;13.73;;
39276;SDS011;63149;48.086;-1.606;2023-01-23T13:09:42;24.00;;;15.30;;
39276;SDS011;63149;48.086;-1.606;2023-01-23T13:12:16;25.45;;;17.13;;
39276;SDS011;63149;48.086;-1.606;2023-01-23T13:14:46;25.20;;;16.42;;
39276;SDS011;63149;48.086;-1.606;2023-01-23T13:17:30;28.10;;;16.33;;
39276;SDS011;63149;48.086;-1.606;2023-01-23T13:20:22;27.92;;;16.42;;
39276;SDS011;63149;48.086;-1.606;2023-01-23T13:23:24;27.10;;;16.35;;
39276;SDS011;63149;48.086;-1.606;2023-01-23T13:26:23;30.60;;;16.95;;
39276;SDS011;63149;48.086;-1.606;2023-01-23T13:28:53;26.05;;;17.08;;
39276;SDS011;63149;48.086;-1.606;2023-01-23T13:31:23;30.13;;;17.95;;
39276;SDS011;63149;48.086;-1.606;2023-01-23T13:33:52;29.92;;;17.75;;
39276;SDS011;63149;48.086;-1.606;2023-01-23T13:36:20;32.40;;;17.77;;
39276;SDS011;63149;48.086;-1.606;2023-01-23T13:38:59;27.52;;;16.23;;
39276;SDS011;63149;48.086;-1.606;2023-01-23T13:41:28;27.17;;;17.05;;
39276;SDS011;63149;48.086;-1.606;2023-01-23T13:44:00;25.95;;;15.82;;
39276;SDS011;63149;48.086;-1.606;2023-01-23T13:46:35;27.38;;;16.25;;
39276;SDS011;63149;48.086;-1.606;2023-01-23T13:49:15;31.00;;;17.08;;
39276;SDS011;63149;48.086;-1.606;2023-01-23T13:52:07;27.85;;;15.35;;
39276;SDS011;63149;48.086;-1.606;2023-01-23T13:54:56;32.75;;;16.75;;
39276;SDS011;63149;48.086;-1.606;2023-01-23T13:57:52;33.80;;;16.10;;
39276;SDS011;63149;48.086;-1.606;2023-01-23T14:00:19;28.17;;;15.75;;
39276;SDS011;63149;48.086;-1.606;2023-01-23T14:02:50;29.55;;;16.60;;
39276;SDS011;63149;48.086;-1.606;2023-01-23T14:05:39;30.20;;;17.02;;
39276;SDS011;63149;48.086;-1.606;2023-01-23T14:08:11;30.92;;;15.98;;
39276;SDS011;63149;48.086;-1.606;2023-01-23T14:10:44;30.17;;;17.10;;
39276;SDS011;63149;48.086;-1.606;2023-01-23T14:13:16;30.02;;;15.52;;
39276;SDS011;63149;48.086;-1.606;2023-01-23T14:15:46;30.33;;;16.95;;
39276;SDS011;63149;48.086;-1.606;2023-01-23T14:18:33;32.50;;;17.00;;
39276;SDS011;63149;48.086;-1.606;2023-01-23T14:21:03;30.70;;;16.73;;
39276;SDS011;63149;48.086;-1.606;2023-01-23T14:23:33;36.40;;;17.15;;
39276;SDS011;63149;48.086;-1.606;2023-01-23T14:26:02;32.47;;;17.33;;
39276;SDS011;63149;48.086;-1.606;2023-01-23T14:28:32;32.35;;;16.27;;
39276;SDS011;63149;48.086;-1.606;2023-01-23T14:31:00;32.40;;;17.17;;
39276;SDS011;63149;48.086;-1.606;2023-01-23T14:33:36;33.72;;;17.60;;
39276;SDS011;63149;48.086;-1.606;2023-01-23T14:36:05;32.33;;;16.27;;
39276;SDS011;63149;48.086;-1.606;2023-01-23T14:38:38;32.20;;;16.63;;
39276;SDS011;63149;48.086;-1.606;2023-01-23T14:41:05;34.45;;;16.10;;
39276;SDS011;63149;48.086;-1.606;2023-01-23T14:43:34;32.35;;;16.85;;
39276;SDS011;63149;48.086;-1.606;2023-01-23T14:46:03;33.45;;;17.33;;
39276;SDS011;63149;48.086;-1.606;2023-01-23T14:48:34;33.78;;;16.45;;
39276;SDS011;63149;48.086;-1.606;2023-01-23T14:51:08;32.58;;;16.58;;
39276;SDS011;63149;48.086;-1.606;2023-01-23T14:53:40;30.58;;;15.52;;
39276;SDS011;63149;48.086;-1.606;2023-01-23T14:56:08;33.28;;;16.48;;
39276;SDS011;63149;48.086;-1.606;2023-01-23T14:58:38;36.20;;;16.92;;
39276;SDS011;63149;48.086;-1.606;2023-01-23T15:01:06;31.05;;;15.48;;
39276;SDS011;63149;48.086;-1.606;2023-01-23T15:03:34;31.63;;;16.80;;
39276;SDS011;63149;48.086;-1.606;2023-01-23T15:06:07;30.13;;;15.60;;
39276;SDS011;63149;48.086;-1.606;2023-01-23T15:08:39;33.88;;;15.75;;
39276;SDS011;63149;48.086;-1.606;2023-01-23T15:11:06;34.45;;;16.23;;
39276;SDS011;63149;48.086;-1.606;2023-01-23T15:13:42;25.60;;;13.98;;
39276;SDS011;63149;48.086;-1.606;2023-01-23T15:16:16;30.23;;;15.13;;
39276;SDS011;63149;48.086;-1.606;2023-01-23T15:18:50;29.98;;;14.48;;
39276;SDS011;63149;48.086;-1.606;2023-01-23T15:21:24;29.50;;;14.40;;
39276;SDS011;63149;48.086;-1.606;2023-01-23T15:24:16;29.92;;;14.90;;
39276;SDS011;63149;48.086;-1.606;2023-01-23T15:26:54;29.60;;;15.57;;
39276;SDS011;63149;48.086;-1.606;2023-01-23T15:29:41;29.08;;;14.38;;
39276;SDS011;63149;48.086;-1.606;2023-01-23T15:32:14;30.38;;;14.70;;
39276;SDS011;63149;48.086;-1.606;2023-01-23T15:34:50;28.67;;;14.63;;
39276;SDS011;63149;48.086;-1.606;2023-01-23T15:37:19;28.98;;;14.18;;
39276;SDS011;63149;48.086;-1.606;2023-01-23T15:39:48;29.52;;;13.80;;
39276;SDS011;63149;48.086;-1.606;2023-01-23T15:42:28;36.63;;;16.02;;
39276;SDS011;63149;48.086;-1.606;2023-01-23T15:44:57;33.78;;;14.75;;
39276;SDS011;63149;48.086;-1.606;2023-01-23T15:47:26;29.25;;;14.82;;
39276;SDS011;63149;48.086;-1.606;2023-01-23T15:49:54;26.75;;;14.52;;
39276;SDS011;63149;48.086;-1.606;2023-01-23T15:52:23;29.30;;;14.40;;
39276;SDS011;63149;48.086;-1.606;2023-01-23T15:54:52;29.63;;;14.75;;
39276;SDS011;63149;48.086;-1.606;2023-01-23T15:57:21;31.27;;;14.70;;
39276;SDS011;63149;48.086;-1.606;2023-01-23T15:59:48;29.27;;;14.50;;
39276;SDS011;63149;48.086;-1.606;2023-01-23T16:02:17;28.13;;;13.45;;
39276;SDS011;63149;48.086;-1.606;2023-01-23T16:04:45;28.60;;;14.13;;
39276;SDS011;63149;48.086;-1.606;2023-01-23T16:07:18;25.55;;;13.00;;
39276;SDS011;63149;48.086;-1.606;2023-01-23T16:09:48;26.98;;;13.15;;
39276;SDS011;63149;48.086;-1.606;2023-01-23T16:12:16;27.67;;;14.05;;
39276;SDS011;63149;48.086;-1.606;2023-01-23T16:14:44;28.40;;;14.73;;
39276;SDS011;63149;48.086;-1.606;2023-01-23T16:17:12;25.90;;;13.02;;
39276;SDS011;63149;48.086;-1.606;2023-01-23T16:19:40;31.88;;;13.88;;
39276;SDS011;63149;48.086;-1.606;2023-01-23T16:22:09;26.13;;;13.93;;
39276;SDS011;63149;48.086;-1.606;2023-01-23T16:24:39;27.77;;;14.25;;
39276;SDS011;63149;48.086;-1.606;2023-01-23T16:27:09;28.48;;;13.02;;
39276;SDS011;63149;48.086;-1.606;2023-01-23T16:29:41;27.15;;;14.07;;
39276;SDS011;63149;48.086;-1.606;2023-01-23T16:32:08;27.17;;;12.65;;
39276;SDS011;63149;48.086;-1.606;2023-01-23T16:34:35;26.33;;;12.70;;
39276;SDS011;63149;48.086;-1.606;2023-01-23T16:37:04;26.50;;;13.93;;
39276;SDS011;63149;48.086;-1.606;2023-01-23T16:39:38;25.55;;;11.50;;
39276;SDS011;63149;48.086;-1.606;2023-01-23T16:42:09;22.27;;;11.88;;
39276;SDS011;63149;48.086;-1.606;2023-01-23T16:44:41;27.05;;;12.80;;
39276;SDS011;63149;48.086;-1.606;2023-01-23T16:47:08;25.63;;;12.43;;
39276;SDS011;63149;48.086;-1.606;2023-01-23T16:49:35;27.42;;;12.60;;
39276;SDS011;63149;48.086;-1.606;2023-01-23T16:52:04;24.73;;;12.82;;
39276;SDS011;63149;48.086;-1.606;2023-01-23T16:54:31;29.30;;;14.48;;
39276;SDS011;63149;48.086;-1.606;2023-01-23T16:56:59;24.33;;;12.93;;
39276;SDS011;63149;48.086;-1.606;2023-01-23T16:59:28;26.42;;;13.07;;
39276;SDS011;63149;48.086;-1.606;2023-01-23T17:04:25;29.10;;;13.63;;
39276;SDS011;63149;48.086;-1.606;2023-01-23T17:06:53;26.25;;;13.60;;
39276;SDS011;63149;48.086;-1.606;2023-01-23T17:09:21;30.58;;;14.38;;
39276;SDS011;63149;48.086;-1.606;2023-01-23T17:11:48;25.73;;;12.90;;
39276;SDS011;63149;48.086;-1.606;2023-01-23T17:14:19;21.37;;;10.70;;
39276;SDS011;63149;48.086;-1.606;2023-01-23T17:16:49;20.55;;;11.50;;
39276;SDS011;63149;48.086;-1.606;2023-01-23T17:19:21;27.10;;;13.52;;
39276;SDS011;63149;48.086;-1.606;2023-01-23T17:21:53;29.63;;;14.73;;
39276;SDS011;63149;48.086;-1.606;2023-01-23T17:24:22;35.25;;;15.38;;
39276;SDS011;63149;48.086;-1.606;2023-01-23T17:26:49;30.58;;;14.25;;
39276;SDS011;63149;48.086;-1.606;2023-01-23T17:29:16;29.70;;;14.48;;
39276;SDS011;63149;48.086;-1.606;2023-01-23T17:31:43;31.55;;;14.63;;
39276;SDS011;63149;48.086;-1.606;2023-01-23T17:34:14;33.08;;;16.23;;
39276;SDS011;63149;48.086;-1.606;2023-01-23T17:36:45;32.58;;;15.40;;
39276;SDS011;63149;48.086;-1.606;2023-01-23T17:39:12;32.10;;;15.73;;
39276;SDS011;63149;48.086;-1.606;2023-01-23T17:41:40;33.05;;;16.30;;
39276;SDS011;63149;48.086;-1.606;2023-01-23T17:44:07;31.08;;;15.30;;
39276;SDS011;63149;48.086;-1.606;2023-01-23T17:46:34;31.10;;;15.25;;
39276;SDS011;63149;48.086;-1.606;2023-01-23T17:49:03;32.47;;;14.55;;
39276;SDS011;63149;48.086;-1.606;2023-01-23T17:51:38;32.13;;;16.33;;
39276;SDS011;63149;48.086;-1.606;2023-01-23T17:54:07;31.50;;;15.43;;
39276;SDS011;63149;48.086;-1.606;2023-01-23T17:56:43;34.50;;;15.98;;
39276;SDS011;63149;48.086;-1.606;2023-01-23T17:59:10;32.13;;;15.50;;
39276;SDS011;63149;48.086;-1.606;2023-01-23T18:01:37;37.65;;;16.38;;
39276;SDS011;63149;48.086;-1.606;2023-01-23T18:04:08;40.22;;;16.20;;
39276;SDS011;63149;48.086;-1.606;2023-01-23T18:06:40;34.30;;;16.08;;
39276;SDS011;63149;48.086;-1.606;2023-01-23T18:09:08;35.67;;;16.60;;
39276;SDS011;63149;48.086;-1.606;2023-01-23T18:11:35;34.83;;;15.80;;
39276;SDS011;63149;48.086;-1.606;2023-01-23T18:14:29;28.02;;;14.93;;
39276;SDS011;63149;48.086;-1.606;2023-01-23T18:19:46;29.00;;;14.30;;
39276;SDS011;63149;48.086;-1.606;2023-01-23T18:22:15;35.40;;;15.32;;
39276;SDS011;63149;48.086;-1.606;2023-01-23T18:24:43;33.78;;;14.95;;
39276;SDS011;63149;48.086;-1.606;2023-01-23T18:27:14;33.83;;;15.55;;
39276;SDS011;63149;48.086;-1.606;2023-01-23T18:29:49;36.30;;;15.55;;
39276;SDS011;63149;48.086;-1.606;2023-01-23T18:32:40;33.65;;;15.57;;
39276;SDS011;63149;48.086;-1.606;2023-01-23T18:35:17;30.92;;;15.45;;
39276;SDS011;63149;48.086;-1.606;2023-01-23T18:37:55;32.58;;;15.50;;
39276;SDS011;63149;48.086;-1.606;2023-01-23T18:40:30;37.97;;;16.35;;
39276;SDS011;63149;48.086;-1.606;2023-01-23T18:43:07;36.72;;;16.40;;
39276;SDS011;63149;48.086;-1.606;2023-01-23T18:45:45;36.38;;;16.73;;
39276;SDS011;63149;48.086;-1.606;2023-01-23T18:48:12;38.42;;;17.83;;
39276;SDS011;63149;48.086;-1.606;2023-01-23T18:50:41;35.47;;;16.80;;
39276;SDS011;63149;48.086;-1.606;2023-01-23T18:53:19;32.42;;;16.38;;
39276;SDS011;63149;48.086;-1.606;2023-01-23T18:55:53;35.53;;;16.92;;
39276;SDS011;63149;48.086;-1.606;2023-01-23T18:58:35;40.60;;;17.80;;
39276;SDS011;63149;48.086;-1.606;2023-01-23T19:01:20;38.70;;;17.20;;
39276;SDS011;63149;48.086;-1.606;2023-01-23T19:03:53;39.05;;;18.35;;
39276;SDS011;63149;48.086;-1.606;2023-01-23T19:06:21;37.40;;;16.67;;
39276;SDS011;63149;48.086;-1.606;2023-01-23T19:08:50;38.50;;;17.17;;
39276;SDS011;63149;48.086;-1.606;2023-01-23T19:11:23;36.47;;;17.70;;
39276;SDS011;63149;48.086;-1.606;2023-01-23T19:13:59;33.72;;;16.10;;
39276;SDS011;63149;48.086;-1.606;2023-01-23T19:16:38;36.63;;;17.65;;
39276;SDS011;63149;48.086;-1.606;2023-01-23T19:19:12;36.35;;;16.08;;
39276;SDS011;63149;48.086;-1.606;2023-01-23T19:21:47;37.38;;;18.05;;
39276;SDS011;63149;48.086;-1.606;2023-01-23T19:24:14;37.72;;;17.85;;
39276;SDS011;63149;48.086;-1.606;2023-01-23T19:26:44;40.50;;;19.38;;
39276;SDS011;63149;48.086;-1.606;2023-01-23T19:29:12;38.20;;;17.60;;
39276;SDS011;63149;48.086;-1.606;2023-01-23T19:31:41;39.10;;;18.25;;
39276;SDS011;63149;48.086;-1.606;2023-01-23T19:34:08;40.70;;;18.52;;
39276;SDS011;63149;48.086;-1.606;2023-01-23T19:36:35;42.67;;;19.02;;
39276;SDS011;63149;48.086;-1.606;2023-01-23T19:39:03;41.08;;;18.98;;
39276;SDS011;63149;48.086;-1.606;2023-01-23T19:41:35;47.90;;;20.48;;
39276;SDS011;63149;48.086;-1.606;2023-01-23T19:44:05;43.15;;;19.25;;
39276;SDS011;63149;48.086;-1.606;2023-01-23T19:46:32;46.25;;;20.05;;
39276;SDS011;63149;48.086;-1.606;2023-01-23T19:49:01;45.67;;;19.75;;
39276;SDS011;63149;48.086;-1.606;2023-01-23T19:51:29;43.10;;;19.77;;
39276;SDS011;63149;48.086;-1.606;2023-01-23T19:53:57;40.30;;;19.80;;
39276;SDS011;63149;48.086;-1.606;2023-01-23T19:56:24;44.97;;;19.40;;
39276;SDS011;63149;48.086;-1.606;2023-01-23T19:58:52;39.90;;;20.00;;
39276;SDS011;63149;48.086;-1.606;2023-01-23T20:01:21;45.05;;;20.67;;
39276;SDS011;63149;48.086;-1.606;2023-01-23T20:06:19;43.40;;;19.27;;
39276;SDS011;63149;48.086;-1.606;2023-01-23T20:08:46;40.45;;;19.17;;
39276;SDS011;63149;48.086;-1.606;2023-01-23T20:11:13;42.25;;;20.58;;
39276;SDS011;63149;48.086;-1.606;2023-01-23T20:13:40;51.20;;;21.35;;
39276;SDS011;63149;48.086;-1.606;2023-01-23T20:16:07;45.20;;;20.77;;
39276;SDS011;63149;48.086;-1.606;2023-01-23T20:18:35;42.72;;;20.02;;
39276;SDS011;63149;48.086;-1.606;2023-01-23T20:21:02;42.25;;;19.88;;
39276;SDS011;63149;48.086;-1.606;2023-01-23T20:23:31;42.53;;;21.63;;
39276;SDS011;63149;48.086;-1.606;2023-01-23T20:25:58;40.45;;;20.02;;
39276;SDS011;63149;48.086;-1.606;2023-01-23T20:28:26;40.92;;;19.75;;
39276;SDS011;63149;48.086;-1.606;2023-01-23T20:30:54;36.97;;;18.42;;
39276;SDS011;63149;48.086;-1.606;2023-01-23T20:33:21;44.00;;;19.85;;
39276;SDS011;63149;48.086;-1.606;2023-01-23T20:35:49;41.47;;;19.70;;
39276;SDS011;63149;48.086;-1.606;2023-01-23T20:38:17;40.38;;;19.00;;
39276;SDS011;63149;48.086;-1.606;2023-01-23T20:40:46;39.60;;;20.00;;
39276;SDS011;63149;48.086;-1.606;2023-01-23T20:43:13;38.75;;;19.33;;
39276;SDS011;63149;48.086;-1.606;2023-01-23T20:45:44;38.17;;;18.42;;
39276;SDS011;63149;48.086;-1.606;2023-01-23T20:48:12;36.45;;;18.95;;
39276;SDS011;63149;48.086;-1.606;2023-01-23T20:50:39;36.20;;;17.40;;